Chicago, IL (60606)

2:24 PM CDT on August 21, 2014 (GMT -0500)
West Loop - Old St. Pats | Change Station
CLOSE
Current Station
Personal Weather Station
Location: Chicago, IL
Elevation: 548 ft
Nearby Weather Stations

Elev 548 ft 41.88 °N, 87.64 °W | Updated 33 seconds ago

Overcast
Overcast
78.9 °F
Feels Like 82 °F
N
1.0
Wind Variable Wind from East
Gusts 1.0 mph

Today
High -- | Low -- °F
--% Chance of Precip.
Yesterday
High -- | Low -- °F
Precip. -- in
6:04 AM 7:41 PM
Waning Crescent, 12% visible
Pressure 29.94 in
Visibility 10.0 miles
Clouds Mostly Cloudy 1700 ft
Mostly Cloudy 6000 ft
Overcast 14000 ft
Heat Index 82 °F
Dew Point 73 °F
Humidity 83%
Rainfall 0.40 in
Snow Depth Not available.
UV 3 out of 12
Pollen 5.80 out of 12
Ozone Good
PM2.5 Moderate
Flu Activity Not available.
METAR KMDW 211851Z VRB03KT 10SM BKN017 BKN060 OVC140 27/23 A2996 RMK AO2 RAB11E34 SLP136 P0000 T02670233

More Conditions Fewer Conditions

Pressure 29.94 in
Visibility 10.0 miles
Clouds Mostly Cloudy 1700 ft
Mostly Cloudy 6000 ft
Overcast 14000 ft
Heat Index 82 °F
Dew Point 73 °F
Humidity 83%
Rainfall 0.40 in
Snow Depth Not available.
UV 3 out of 12
Pollen 5.80 out of 12
Ozone Good
PM2.5 Moderate
Flu Activity Not available.
METAR KMDW 211851Z VRB03KT 10SM BKN017 BKN060 OVC140 27/23 A2996 RMK AO2 RAB11E34 SLP136 P0000 T02670233

More Conditions Fewer Conditions

10-Day Weather Forecast

Almanac

Astronomy

Aug. 21, 2014 Rise Set
Actual Time 6:04 AM CDT 7:41 PM CDT
Civil Twilight 5:35 AM CDT 8:11 PM CDT
Nautical Twilight 4:59 AM CDT 8:46 PM CDT
Astronomical Twilight 4:21 AM CDT 9:24 PM CDT
Moon 2:33 AM CDT 5:11 PM CDT
Length of Visible Light 14h 35m
Length of Day
13h 36m
Tomorrow will be 2m 35s shorter.
Waning Crescent, 12% of the Moon is Illuminated
Today
Waning Crescent
Aug 25
New
Sep 2
First Quarter
Sep 8
Full
Sep 15
Last Quarter

Today's Extremes

State Highs State Lows

Community

WunderPhotos

Upload Photos

1,746,008 photos uploaded!

WunderBlogs® & News

Nearby

Air Quality

  Air Quality AQ Index Pollutant
Yesterday Moderate
PM2.5
Yesterday Good
OZONE
Current Moderate
PM2.5
Current Good
OZONE
Thursday Moderate
OZONE
Thursday Moderate
PM2.5

Snow Depth

Station Depth Elevation
No new snow has been reported.

Earthquake Activity

City Distance Mag. Time & Date
No recent earthquake activity has been reported nearby.
Minimum magnitude displayed is 2.5.

Coastal Water Temperatures

Place Temperature
No Stations Reporting

Nearby Weather Stations